Latest Weather Observations for Horsham

IDV60801

Issued at 2:02 am EDT Saturday 10 December 2016 (issued every 30 minutes, with the page automatically refreshed every 10 minutes)

About weather observations | Map of weather stations | Latest weather observations for VIC | Other Formats
Station Details ID: 079100 Name: HORSHAM AERODROME Lat: -36.67 Lon: 142.17 Height: 133.8 m
Data from the previous 72 hours. | See also: Recent months at Horsham
Date/Time
EDT
Temp
°C
App
Temp
°C
Dew
Point
°C
Rel
Hum
%
Delta-T
°C
Wind Press
QNH
hPa
Press
MSL
hPa
Rain since
9am
mm
Dir  Spd
km/h
Gust
km/h
Spd
kts
Gust
kts
10/02:00am 6.8 3.5 4.8 87 0.9 S 11 13 6 7 1022.7 1022.3 0.0
10/01:30am 8.2 4.4 5.8 85 1.1 SSW 15 17 8 9 1022.7 1022.3 0.0
10/01:00am 8.0 4.2 5.6 85 1.1 S 15 17 8 9 1022.9 1022.5 0.0
10/12:30am 8.1 4.3 5.6 84 1.1 S 15 17 8 9 1023.0 1022.6 0.0
10/12:00am 9.2 5.5 6.1 81 1.4 SSE 15 17 8 9 1023.1 1022.7 0.0
 
Date/Time
EDT
Temp
°C
App
Temp
°C
Dew
Point
°C
Rel
Hum
%
Delta-T
°C
Wind Press
QNH
hPa
Press
MSL
hPa
Rain since
9am
mm
Dir  Spd
km/h
Gust
km/h
Spd
kts
Gust
kts
09/11:30pm 10.7 7.1 6.6 76 1.9 SSE 15 19 8 10 1023.2 1022.8 0.0
09/11:00pm 12.6 8.7 7.1 69 2.7 SSE 17 22 9 12 1023.1 1022.7 0.0
09/10:30pm 13.2 9.2 6.5 64 3.2 S 17 26 9 14 1022.9 1022.5 0.0
09/10:00pm 13.1 9.8 6.5 64 3.2 SSW 13 17 7 9 1022.7 1022.3 0.0
09/09:30pm 12.0 8.5 5.4 64 3.1 SSW 13 17 7 9 1022.4 1022.0 0.0
09/09:00pm 13.7 8.8 5.3 57 3.9 SSW 20 28 11 15 1022.2 1021.8 0.0
09/08:30pm 14.7 9.6 5.8 55 4.3 SSW 22 32 12 17 1022.0 1021.6 0.0
09/08:00pm 14.7 9.9 5.5 54 4.4 SSW 20 28 11 15 1021.7 1021.3 0.0
09/07:30pm 15.3 9.3 5.5 52 4.7 SSW 26 33 14 18 1021.2 1020.9 0.0
09/07:00pm 15.8 10.3 5.7 51 4.9 S 24 32 13 17 1020.9 1020.6 0.0
09/06:30pm 16.9 10.7 6.1 49 5.3 SSW 28 35 15 19 1020.4 1020.1 0.0
09/06:00pm 18.0 12.0 5.2 43 6.2 SSW 26 35 14 19 1020.0 1019.7 0.0
09/05:30pm 17.4 11.3 5.0 44 6.0 SSW 26 35 14 19 1019.8 1019.5 0.0
09/05:00pm 18.5 12.4 5.0 41 6.5 SW 26 37 14 20 1019.7 1019.4 0.0
09/04:30pm 18.0 11.5 4.6 41 6.4 SSW 28 44 15 24 1019.8 1019.5 0.0
09/04:00pm 20.0 13.2 5.3 38 7.2 SSW 30 70 16 38 1019.8 1019.5 0.0
09/03:58pm 19.2 12.7 4.6 38 7.1 S 28 70 15 38 1019.6 1019.3 0.0
09/03:53pm 19.7 13.2 4.6 37 7.3 SSW 28 46 15 25 1019.7 1019.4 0.0
09/03:30pm 19.1 13.2 4.1 37 7.2 SSW 24 33 13 18 1019.8 1019.5 0.0
09/03:00pm 18.4 12.6 4.2 39 6.8 SSW 24 39 13 21 1019.9 1019.6 0.0
09/02:30pm 18.8 12.7 4.6 39 6.9 SSW 26 41 14 22 1019.9 1019.6 0.0
09/02:00pm 17.8 12.0 4.4 41 6.4 SSW 24 35 13 19 1020.1 1019.8 0.0
09/01:30pm 17.0 10.8 4.3 43 6.0 S 26 44 14 24 1020.5 1020.2 0.0
09/01:13pm 16.3 9.8 4.7 46 5.5 SSW 28 46 15 25 1020.5 1020.2 0.0
09/01:00pm 16.9 10.3 4.3 43 5.9 SSW 28 43 15 23 1020.3 1020.0 0.0
09/12:30pm 15.7 9.3 5.0 49 5.1 SSW 28 41 15 22 1020.6 1020.3 0.0
09/12:00pm 15.1 8.2 4.5 49 4.9 SSW 30 37 16 20 1020.6 1020.3 0.0
09/11:30am 14.2 7.2 4.2 51 4.6 SW 30 43 16 23 1020.3 1020.0 0.0
09/11:00am 14.4 6.9 3.5 48 5.0 SW 32 39 17 21 1020.0 1019.7 0.0
09/10:30am 14.0 6.4 3.8 50 4.7 SSW 33 44 18 24 1019.6 1019.3 0.0
09/10:00am 13.8 7.3 4.9 55 4.2 SSW 28 37 15 20 1019.4 1019.1 0.0
09/09:30am 12.3 5.7 6.1 66 2.9 SSW 30 39 16 21 1019.3 1019.0 0.0
09/09:00am 12.1 6.5 7.0 71 2.5 SSW 26 35 14 19 1018.8 1018.5 2.0
09/08:30am 11.5 6.9 8.2 80 1.6 SSW 22 28 12 15 1018.4 1018.1 2.0
09/08:00am 10.3 6.5 7.7 84 1.3 SW 17 22 9 12 1017.9 1017.5 2.0
09/07:30am 9.3 5.9 7.6 89 0.8 WSW 15 20 8 11 1017.3 1016.9 2.0
09/07:00am 8.2 5.4 7.1 93 0.5 WSW 11 17 6 9 1016.8 1016.4 2.0
09/06:30am 7.8 4.6 6.9 94 0.4 WSW 13 17 7 9 1016.3 1015.9 2.0
09/06:00am 7.7 4.5 6.8 94 0.4 WSW 13 17 7 9 1015.9 1015.5 2.0
09/05:30am 7.0 3.6 6.1 94 0.4 WSW 13 17 7 9 1015.3 1014.9 2.0
09/05:00am 6.7 3.6 5.7 93 0.4 WSW 11 15 6 8 1014.5 1014.1 2.0
09/04:30am 6.9 3.9 5.8 93 0.5 SW 11 15 6 8 1014.2 1013.8 2.0
09/04:00am 7.6 4.3 6.2 91 0.6 SW 13 15 7 8 1013.9 1013.5 2.0
09/03:30am 7.4 4.8 6.0 91 0.6 SW 9 13 5 7 1013.7 1013.3 2.0
09/03:00am 7.8 4.4 6.1 89 0.8 WSW 13 17 7 9 1013.6 1013.2 2.0
09/02:30am 8.3 5.4 6.3 87 0.9 WSW 11 15 6 8 1013.4 1013.1 2.0
09/02:00am 8.7 4.7 6.7 87 0.9 SW 17 20 9 11 1013.2 1012.9 2.0
09/01:30am 9.2 5.3 7.2 87 0.9 SW 17 20 9 11 1013.2 1012.9 2.0
09/01:00am 9.6 5.8 7.7 88 0.9 SW 17 20 9 11 1013.0 1012.7 2.0
09/12:30am 9.9 5.3 8.2 89 0.8 SW 22 28 12 15 1012.9 1012.6 2.0
09/12:00am 9.6 6.5 7.2 85 1.1 SW 13 17 7 9 1012.7 1012.4 1.8
 
Date/Time
EDT
Temp
°C
App
Temp
°C
Dew
Point
°C
Rel
Hum
%
Delta-T
°C
Wind Press
QNH
hPa
Press
MSL
hPa
Rain since
9am
mm
Dir  Spd
km/h
Gust
km/h
Spd
kts
Gust
kts
08/11:30pm 9.9 6.0 7.0 82 1.4 SW 17 22 9 12 1012.4 1012.1 1.8
08/11:00pm 10.7 6.5 7.6 81 1.5 SW 19 26 10 14 1012.2 1011.9 1.8
08/10:30pm 10.3 6.0 7.0 80 1.6 WSW 19 26 10 14 1011.8 1011.5 1.8
08/10:00pm 10.6 6.4 7.5 81 1.5 WSW 19 26 10 14 1011.3 1010.9 1.8
08/09:30pm 10.4 6.7 7.8 84 1.3 WSW 17 22 9 12 1010.6 1010.2 1.8
08/09:00pm 10.9 6.6 7.8 81 1.5 SW 20 28 11 15 1010.1 1009.7 1.8
08/08:30pm 12.1 5.3 7.8 75 2.1 SW 33 50 18 27 1009.4 1009.0 1.8
08/08:26pm 12.1 5.5 7.6 74 2.2 SW 32 50 17 27 1009.3 1008.9 1.8
08/08:00pm 12.7 7.4 9.7 82 1.5 SW 28 37 15 20 1008.6 1008.2 1.8
08/07:30pm 12.3 6.1 9.5 83 1.4 SW 32 44 17 24 1007.9 1007.5 1.6
08/07:08pm 14.7 8.0 8.0 64 3.4 SW 33 54 18 29 1007.0 1006.6 1.4
08/07:00pm 14.8 9.0 9.4 70 2.8 WSW 30 43 16 23 1006.8 1006.4 1.4
08/06:34pm 15.0 6.8 8.0 63 3.5 WSW 41 59 22 32 1006.2 1005.8 1.0
08/06:30pm 15.5 6.8 7.8 60 3.9 WSW 43 59 23 32 1006.1 1005.7 1.0
08/06:14pm 15.5 7.3 8.0 61 3.8 WSW 41 61 22 33 1005.8 1005.4 1.0
08/06:00pm 14.6 7.8 9.4 71 2.7 WSW 35 50 19 27 1005.6 1005.3 1.0
08/05:34pm 14.9 8.6 11.1 78 2.0 WSW 35 48 19 26 1005.3 1005.0 1.0
08/05:30pm 14.7 8.6 11.7 82 1.6 WSW 35 48 19 26 1005.3 1005.0 1.0
08/05:17pm 12.3 3.2 9.7 84 1.3 WSW 48 74 26 40 1005.4 1005.1 0.8
08/05:13pm 12.9 3.8 9.9 82 1.5 WSW 48 74 26 40 1005.3 1005.0 0.4
08/05:00pm 18.7 9.2 6.5 45 6.1 WSW 46 65 25 35 1004.4 1004.0 0.2
08/04:30pm 18.6 8.2 6.1 44 6.2 WSW 50 70 27 38 1004.1 1003.7 0.2
08/04:00pm 18.0 9.3 8.3 53 5.0 WSW 44 63 24 34 1003.7 1003.3 0.2
08/03:41pm 17.5 10.0 9.4 59 4.3 W 39 57 21 31 1003.8 1003.4 0.2
08/03:30pm 16.0 9.2 10.5 70 2.9 W 37 46 20 25 1003.7 1003.3 0.2
08/03:07pm 13.0 2.4 8.5 74 2.3 WSW 54 85 29 46 1004.1 1003.7 0.0
08/03:03pm 18.2 8.3 6.4 46 5.9 WSW 48 76 26 41 1003.6 1003.2 0.0
08/03:00pm 19.7 10.4 7.4 45 6.3 WSW 46 63 25 34 1003.3 1002.9 0.0
08/02:42pm 18.5 9.5 9.0 54 5.0 W 46 65 25 35 1003.3 1002.9 0.0
08/02:30pm 18.7 8.4 6.5 45 6.1 W 50 67 27 36 1003.0 1002.6 0.0
08/02:00pm 20.0 10.3 6.0 40 7.0 W 46 65 25 35 1002.6 1002.2 0.0
08/01:40pm 20.1 10.8 5.0 37 7.4 WSW 43 65 23 35 1002.6 1002.2 0.0
08/01:30pm 19.5 11.3 8.2 48 5.9 W 41 54 22 29 1002.5 1002.1 0.0
08/01:05pm 19.4 11.3 6.8 44 6.4 W 39 59 21 32 1002.5 1002.1 0.0
08/01:00pm 18.8 10.3 6.9 46 6.0 W 41 54 22 29 1002.6 1002.2 0.0
08/12:30pm 18.6 8.3 6.4 45 6.1 WSW 50 69 27 37 1002.6 1002.2 0.0
08/12:00pm 19.5 9.9 6.3 42 6.7 WSW 46 65 25 35 1002.2 1001.8 0.0
08/11:39am 18.9 9.5 7.0 46 6.0 W 46 65 25 35 1001.9 1001.5 0.0
08/11:30am 18.5 7.3 6.0 44 6.2 W 54 69 29 37 1002.1 1001.7 0.0
08/11:00am 17.7 7.0 6.6 48 5.6 W 52 72 28 39 1002.0 1001.6 0.0
08/10:58am 17.7 7.0 6.6 48 5.5 W 52 70 28 38 1002.1 1001.7 0.0
08/10:51am 16.8 7.2 8.0 56 4.5 W 48 70 26 38 1001.8 1001.4 0.0
08/10:31am 17.9 9.9 9.0 56 4.7 W 41 59 22 32 1001.5 1001.1 0.0
08/10:30am 17.9 9.8 10.0 60 4.2 W 43 59 23 32 1001.5 1001.1 0.0
08/10:01am 16.3 9.6 9.5 64 3.6 W 35 54 19 29 1001.5 1001.1 0.0
08/10:00am 16.4 9.6 9.1 62 3.8 W 35 52 19 28 1001.4 1001.0 0.0
08/09:44am 15.6 7.1 9.3 66 3.3 W 44 65 24 35 1001.6 1001.2 0.0
08/09:30am 15.6 7.3 9.9 69 3.0 W 44 61 24 33 1001.5 1001.1 0.0
08/09:06am 14.4 7.7 9.6 73 2.5 W 35 56 19 30 1001.3 1000.9 0.0
08/09:00am 14.5 8.4 10.5 77 2.1 W 33 50 18 27 1001.3 1000.9 -
08/08:57am 14.2 8.3 10.4 78 2.0 W 32 50 17 27 1001.1 1000.7 -
08/08:30am 13.9 7.2 11.1 83 1.5 W 37 48 20 26 1000.9 1000.5 -
08/08:00am 13.9 6.0 10.7 81 1.7 W 43 57 23 31 1000.3 999.9 -
08/07:47am 14.2 7.3 11.7 85 1.3 W 39 57 21 31 1000.1 999.7 -
08/07:45am 14.1 7.7 12.0 87 1.1 W 37 54 20 29 1000.2 999.8 -
08/07:38am 14.1 7.6 13.0 93 0.6 W 39 57 21 31 1000.1 999.7 -
08/07:30am 14.2 7.0 13.1 93 0.6 W 43 57 23 31 1000.0 999.6 -
08/07:22am 14.4 7.1 13.3 93 0.6 W 44 72 24 39 999.8 999.4 -
08/07:10am 15.4 8.2 13.8 90 0.9 W 44 70 24 38 999.4 999.0 -
08/07:05am 17.1 11.3 16.0 93 0.7 NW 41 61 22 33 999.0 998.6 -
08/07:04am 17.3 12.0 16.3 94 0.6 NW 39 61 21 33 998.9 998.5 -
08/07:03am 17.5 12.7 16.5 94 0.6 NW 37 61 20 33 998.9 998.5 -
08/07:00am 17.8 13.1 16.8 94 0.6 NNW 37 50 20 27 998.3 997.8 -
08/06:30am 17.7 12.5 16.6 93 0.7 NNW 39 52 21 28 998.1 997.6 -
08/06:00am 17.8 12.2 16.5 92 0.8 NW 41 52 22 28 998.2 997.7 -
08/05:30am 18.3 13.4 16.3 88 1.2 NNW 37 48 20 26 998.2 997.7 -
08/05:00am 18.2 13.4 16.5 90 1.0 NNW 37 50 20 27 998.4 997.9 -
08/04:30am 18.7 13.9 15.6 82 1.8 NW 35 50 19 27 999.5 999.1 -
08/04:08am 18.8 14.4 15.1 79 2.2 NW 32 56 17 30 999.6 999.2 -
08/04:00am 19.1 15.2 14.4 74 2.8 WNW 28 35 15 19 998.9 998.5 -
08/03:30am 21.8 16.8 10.9 50 6.0 N 28 35 15 19 998.0 997.5 -
08/03:00am 22.2 16.3 10.4 47 6.5 N 32 39 17 21 997.8 997.4 0.0
08/02:30am 25.1 18.5 7.7 33 9.3 N 32 52 17 28 999.1 998.7 -
08/02:07am 24.8 17.9 8.7 36 8.7 N 35 54 19 29 999.5 999.1 -
08/02:00am 25.2 18.4 7.8 33 9.3 N 33 46 18 25 999.6 999.2 -
08/01:30am 24.9 17.4 8.0 34 9.0 N 37 46 20 25 999.2 998.8 -
08/01:00am 24.7 17.5 7.8 34 9.1 N 35 43 19 23 1000.1 999.7 -
08/12:30am 25.1 17.9 7.7 33 9.3 N 35 46 19 25 1000.6 1000.2 -
08/12:00am 25.1 18.3 7.7 33 9.3 N 33 43 18 23 1001.6 1001.2 -
 
Date/Time
EDT
Temp
°C
App
Temp
°C
Dew
Point
°C
Rel
Hum
%
Delta-T
°C
Wind Press
QNH
hPa
Press
MSL
hPa
Rain since
9am
mm
Dir  Spd
km/h
Gust
km/h
Spd
kts
Gust
kts
07/11:30pm 24.8 18.5 7.4 33 9.2 NNE 30 41 16 22 1002.1 1001.7 -
07/11:00pm 23.3 19.0 7.8 37 8.2 NNE 20 24 11 13 1003.2 1002.8 -
07/10:30pm 23.3 19.7 8.2 38 8.0 NNE 17 19 9 10 1003.9 1003.5 -
07/10:00pm 23.0 19.9 8.7 40 7.7 NNE 15 17 8 9 1004.3 1003.9 -
07/09:30pm 24.1 21.5 9.3 39 8.1 NNE 13 15 7 8 1004.9 1004.5 -
07/09:00pm 24.9 22.3 9.2 37 8.6 N 13 20 7 11 1005.1 1004.7 -
07/08:30pm 25.8 22.5 7.9 32 9.6 N 15 17 8 9 1005.4 1005.1 -
07/08:00pm 26.8 22.7 7.8 30 10.3 N 19 22 10 12 1005.4 1005.1 -
07/07:30pm 28.0 24.3 7.8 28 11.0 NNW 17 20 9 11 1005.6 1005.3 -
07/07:00pm 28.4 24.4 8.1 28 11.1 NNW 19 24 10 13 1006.1 1005.7 -
07/06:30pm 27.9 23.8 7.7 28 10.9 NW 19 41 10 22 1006.6 1006.2 -
07/06:00pm 29.6 25.7 8.6 27 11.7 NW 19 28 10 15 1007.1 1006.7 -
07/05:30pm 29.2 23.3 7.7 26 11.7 NW 28 41 15 22 1007.8 1007.4 -
07/05:00pm 28.0 22.3 6.7 26 11.4 NW 26 39 14 21 1008.4 1008.0 -
07/04:39pm 29.1 23.1 7.1 25 11.9 NW 28 46 15 25 1008.9 1008.5 0.0
07/04:30pm 29.5 23.2 5.6 22 12.6 NW 28 43 15 23 1009.2 1008.8 0.0
07/04:00pm 28.5 22.3 1.9 18 13.1 W 24 43 13 23 1009.8 1009.4 0.0
07/03:43pm 28.7 22.0 1.3 17 13.3 NW 26 48 14 26 1010.2 1009.8 0.0
07/03:30pm 27.9 22.3 1.4 18 12.9 WNW 20 32 11 17 1010.3 1009.9 0.0
07/03:00pm 26.9 20.4 0.6 18 12.5 WNW 24 37 13 20 1011.0 1010.6 0.0
07/02:30pm 26.5 20.1 1.0 19 12.2 NNW 24 37 13 20 1011.4 1011.0 0.0
07/02:00pm 26.7 21.4 -0.3 17 12.6 WNW 17 32 9 17 1011.9 1011.6 0.0
07/01:30pm 25.6 20.5 1.0 20 11.7 NW 17 28 9 15 1012.5 1012.2 0.0
07/01:00pm 24.5 19.7 2.6 24 10.6 N 17 30 9 16 1013.1 1012.8 0.0
07/12:30pm 24.0 19.3 3.3 26 10.1 NNE 17 30 9 16 1013.6 1013.2 0.0
07/12:00pm 22.7 18.9 3.8 29 9.2 NNE 13 28 7 15 1014.1 1013.7 0.0
07/11:30am 22.0 17.6 4.6 32 8.6 NNE 17 26 9 14 1014.4 1014.0 0.0
07/11:00am 20.0 15.6 4.5 36 7.5 NNE 17 32 9 17 1014.7 1014.3 0.0
07/10:30am 19.9 16.0 5.5 39 7.1 NNE 15 24 8 13 1014.9 1014.5 0.0
07/10:00am 18.7 15.1 5.2 41 6.6 ENE 13 20 7 11 1015.3 1014.9 0.0
07/09:30am 18.2 14.7 5.4 43 6.3 E 13 17 7 9 1015.3 1014.9 0.0
07/09:00am 17.4 13.7 6.3 48 5.5 E 15 20 8 11 1015.3 1014.9 0.0
07/08:30am 15.5 12.0 7.3 58 4.1 ESE 15 22 8 12 1015.4 1015.0 0.0
07/08:00am 12.5 9.4 7.2 70 2.6 ESE 13 17 7 9 1015.4 1015.0 0.0
07/07:30am 9.9 7.8 6.6 80 1.6 ESE 7 9 4 5 1015.0 1014.6 0.0
07/07:00am 8.4 6.3 5.7 83 1.2 ESE 6 7 3 4 1014.9 1014.5 0.0
07/06:30am 4.7 1.0 2.2 84 1.0 ESE 11 13 6 7 1014.9 1014.5 0.0
07/06:00am 4.4 0.7 2.4 87 0.8 SSE 11 13 6 7 1014.8 1014.4 0.0
07/05:30am 5.2 2.0 3.2 87 0.8 SSE 9 11 5 6 1014.8 1014.4 0.0
07/05:00am 5.9 4.5 3.4 84 1.1 CALM 0 0 0 0 1014.8 1014.4 0.0
07/04:30am 8.1 5.8 5.6 84 1.1 SW 7 11 4 6 1014.6 1014.2 0.0
07/04:00am 7.3 5.0 4.6 83 1.2 WSW 6 7 3 4 1014.4 1014.0 0.0
07/03:30am 7.0 5.6 3.4 78 1.5 CALM 0 0 0 0 1014.5 1014.1 0.0
07/03:00am 8.3 7.2 4.9 79 1.5 CALM 0 6 0 3 1014.7 1014.3 0.0
07/02:30am 9.5 7.4 5.7 77 1.7 W 6 7 3 4 1014.9 1014.5 0.0

Other Formats:

Comma delimited format used in spreadsheet applications
http://www.bom.gov.au/fwo/IDV60801/IDV60801.95839.axf

JavaScript Object Notation format (JSON) in row-major order
http://www.bom.gov.au/fwo/IDV60801/IDV60801.95839.json